createdAt,value
2023-04-13T00:00:51.922Z,99431.20
2023-04-13T00:05:55.863Z,99433.00
2023-04-13T00:11:00.211Z,99431.20
2023-04-13T00:16:03.393Z,99431.80
2023-04-13T00:21:07.602Z,99428.20
2023-04-13T00:26:10.664Z,99427.20
2023-04-13T00:31:14.003Z,99431.40
2023-04-13T00:36:17.978Z,99424.80
2023-04-13T00:41:21.076Z,99418.40
2023-04-13T00:46:24.808Z,99414.60
2023-04-13T00:51:30.531Z,99405.20
2023-04-13T00:56:34.573Z,99406.20
2023-04-13T01:01:46.562Z,99398.60
2023-04-13T01:07:18.825Z,99391.20
2023-04-13T01:12:56.816Z,99398.40
2023-04-13T01:18:07.605Z,99397.40
2023-04-13T01:23:53.541Z,99402.00
2023-04-13T01:28:58.324Z,99399.60
2023-04-13T01:34:02.304Z,99399.80
2023-04-13T01:39:06.011Z,99384.80
2023-04-13T01:44:09.323Z,99380.00
2023-04-13T01:49:19.681Z,99372.20
2023-04-13T01:54:27.654Z,99356.80
2023-04-13T01:59:31.138Z,99354.20
2023-04-13T02:04:34.248Z,99349.60
2023-04-13T02:09:37.347Z,99345.20
2023-04-13T02:14:40.559Z,99350.40
2023-04-13T02:19:44.296Z,99353.60
2023-04-13T02:24:47.899Z,99363.80
2023-04-13T02:29:52.640Z,99370.60
2023-04-13T02:34:55.750Z,99392.20
2023-04-13T02:39:58.857Z,99410.80
2023-04-13T02:45:02.087Z,99417.40
2023-04-13T02:50:06.972Z,99412.40
2023-04-13T02:55:11.300Z,99409.60
2023-04-13T03:00:16.262Z,99407.20
2023-04-13T03:05:20.125Z,99406.80
2023-04-13T03:10:23.323Z,99416.00
2023-04-13T03:15:26.327Z,99425.80
2023-04-13T03:20:29.562Z,99424.80
2023-04-13T03:25:33.862Z,99427.60
2023-04-13T03:30:37.808Z,99435.40
2023-04-13T03:35:41.321Z,99429.00
2023-04-13T03:40:44.937Z,99432.80
2023-04-13T03:45:48.044Z,99427.20
2023-04-13T03:50:51.149Z,99430.20
2023-04-13T03:55:54.568Z,99422.80
2023-04-13T04:00:57.981Z,99434.40
2023-04-13T04:06:01.308Z,99444.80
2023-04-13T04:11:05.201Z,99441.80
2023-04-13T04:16:09.730Z,99446.00
2023-04-13T04:21:15.751Z,99452.20
2023-04-13T04:26:25.914Z,99455.60
2023-04-13T04:31:37.394Z,99456.00
2023-04-13T04:36:42.241Z,99460.60
2023-04-13T04:41:45.362Z,99463.60
2023-04-13T04:46:49.426Z,99474.40
2023-04-13T04:51:53.127Z,99481.80
2023-04-13T04:56:58.319Z,99481.00
2023-04-13T05:02:01.377Z,99483.80
2023-04-13T05:07:04.581Z,99482.00
2023-04-13T05:12:07.785Z,99482.80
2023-04-13T05:17:10.993Z,99479.60
2023-04-13T05:22:16.042Z,99489.00
2023-04-13T05:27:19.045Z,99483.00
2023-04-13T05:32:22.159Z,99468.20
2023-04-13T05:37:25.264Z,99457.40
2023-04-13T05:42:28.400Z,99454.40
2023-04-13T05:47:31.924Z,99457.00
2023-04-13T05:52:35.407Z,99467.20
2023-04-13T05:57:38.501Z,99467.60
2023-04-13T06:02:42.236Z,99465.80
2023-04-13T06:07:46.790Z,99471.00
2023-04-13T06:12:50.888Z,99461.60
2023-04-13T06:17:54.283Z,99459.40
2023-04-13T06:22:57.613Z,99460.40
2023-04-13T06:28:02.723Z,99454.40
2023-04-13T06:33:06.430Z,99464.60
2023-04-13T06:38:10.419Z,99462.40
2023-04-13T06:43:26.428Z,99459.00
2023-04-13T06:48:33.250Z,99466.60
2023-04-13T06:53:36.318Z,99474.00
2023-04-13T06:58:39.427Z,99473.60
2023-04-13T07:03:43.739Z,99461.60
2023-04-13T07:08:47.304Z,99463.60
2023-04-13T07:13:50.390Z,99462.60
2023-04-13T07:18:53.511Z,99463.00
2023-04-13T07:23:56.632Z,99462.20
2023-04-13T07:28:59.995Z,99455.00
2023-04-13T07:34:03.337Z,99450.00
2023-04-13T07:39:09.101Z,99444.60
2023-04-13T07:44:12.714Z,99439.00
2023-04-13T07:49:15.859Z,99438.40
2023-04-13T07:54:19.024Z,99432.20
2023-04-13T07:59:24.123Z,99435.20
2023-04-13T08:04:28.468Z,99441.00
2023-04-13T08:09:36.760Z,99452.20
2023-04-13T08:14:39.949Z,99448.20
2023-04-13T08:19:43.062Z,99449.80
2023-04-13T08:24:46.099Z,99446.20
2023-04-13T08:29:56.330Z,99445.80
2023-04-13T08:34:59.855Z,99441.20
2023-04-13T08:40:07.604Z,99437.20
2023-04-13T08:45:13.200Z,99430.80
2023-04-13T08:50:17.599Z,99435.00
2023-04-13T08:55:20.810Z,99429.40
2023-04-13T09:00:25.721Z,99430.00
2023-04-13T09:05:30.943Z,99431.40
2023-04-13T09:10:35.421Z,99429.40
2023-04-13T09:15:39.348Z,99431.80
2023-04-13T09:20:42.654Z,99433.20
2023-04-13T09:25:46.993Z,99434.20
2023-04-13T09:30:50.228Z,99431.80
2023-04-13T09:35:53.412Z,99426.60
2023-04-13T09:40:58.465Z,99426.00
2023-04-13T09:46:01.816Z,99416.20
2023-04-13T09:51:08.747Z,99423.40
2023-04-13T09:56:12.501Z,99421.80
2023-04-13T10:01:15.780Z,99421.40
2023-04-13T10:06:20.656Z,99418.00
2023-04-13T10:11:24.779Z,99421.60
2023-04-13T10:16:54.130Z,99435.80
2023-04-13T10:21:58.918Z,99435.60
2023-04-13T10:27:14.394Z,99423.80
2023-04-13T10:32:26.990Z,99423.80
2023-04-13T10:37:30.284Z,99425.00
2023-04-13T10:47:58.787Z,99427.80
2023-04-13T10:53:07.924Z,99427.00
2023-04-13T10:58:18.489Z,99430.00
2023-04-13T11:03:22.473Z,99431.00
2023-04-13T11:08:28.298Z,99427.80
2023-04-13T11:13:32.970Z,99428.60
2023-04-13T11:18:36.401Z,99426.00
2023-04-13T11:23:39.544Z,99429.80
2023-04-13T11:28:46.413Z,99429.20
2023-04-13T11:33:49.754Z,99429.20
2023-04-13T11:38:54.569Z,99425.00
2023-04-13T11:43:58.076Z,99423.40
2023-04-13T11:49:01.938Z,99426.60
2023-04-13T11:54:07.015Z,99426.40
2023-04-13T11:59:10.084Z,99431.20
2023-04-13T12:04:16.371Z,99429.20
2023-04-13T12:09:20.853Z,99432.80
2023-04-13T12:19:43.184Z,99427.60
2023-04-13T12:24:48.153Z,99423.80
2023-04-13T12:29:51.850Z,99422.60
2023-04-13T12:34:54.946Z,99421.00
2023-04-13T12:39:58.479Z,99419.80
2023-04-13T12:45:01.566Z,99424.40
2023-04-13T12:50:10.594Z,99424.60
2023-04-13T12:55:13.754Z,99426.20
2023-04-13T13:00:18.254Z,99430.60
2023-04-13T13:05:21.586Z,99426.60
2023-04-13T13:10:29.499Z,99431.40
2023-04-13T13:15:34.272Z,99436.60
2023-04-13T13:20:41.566Z,99437.20
2023-04-13T13:25:54.286Z,99439.00
2023-04-13T13:31:09.084Z,99447.80
2023-04-13T13:36:14.665Z,99447.60
2023-04-13T13:41:18.537Z,99451.80
2023-04-13T13:46:21.715Z,99454.80
2023-04-13T13:51:24.952Z,99461.80
2023-04-13T13:56:27.976Z,99460.60
2023-04-13T14:01:31.707Z,99468.60
2023-04-13T14:06:34.886Z,99470.40
2023-04-13T14:11:38.224Z,99471.40
2023-04-13T14:16:41.613Z,99472.20
2023-04-13T14:21:44.735Z,99473.20
2023-04-13T14:26:47.840Z,99482.20
2023-04-13T14:31:50.853Z,99484.40
2023-04-13T14:36:54.523Z,99483.20
2023-04-13T14:41:57.698Z,99485.00
2023-04-13T14:47:01.781Z,99486.20
2023-04-13T14:52:05.095Z,99482.80
2023-04-13T14:57:10.066Z,99483.00
2023-04-13T15:02:13.365Z,99486.60
2023-04-13T15:07:16.789Z,99492.60
2023-04-13T15:12:19.982Z,99498.80
2023-04-13T15:17:23.191Z,99507.60
2023-04-13T15:22:26.641Z,99509.60
2023-04-13T15:27:29.979Z,99512.00
2023-04-13T15:32:36.435Z,99510.80
2023-04-13T15:37:39.932Z,99515.40
2023-04-13T15:42:43.128Z,99515.20
2023-04-13T15:47:46.727Z,99515.60
2023-04-13T15:52:50.108Z,99521.00
2023-04-13T15:57:54.113Z,99527.00
2023-04-13T16:02:57.608Z,99528.40
2023-04-13T16:08:01.228Z,99530.80
2023-04-13T16:13:06.708Z,99535.20
2023-04-13T16:18:09.787Z,99532.80
2023-04-13T16:23:14.543Z,99528.80
2023-04-13T16:28:17.842Z,99530.40
2023-04-13T16:33:21.055Z,99530.20
2023-04-13T16:38:24.157Z,99532.40
2023-04-13T16:43:27.276Z,99539.20
2023-04-13T16:48:30.979Z,99538.00
2023-04-13T16:53:33.988Z,99540.40
2023-04-13T16:58:38.112Z,99541.60
2023-04-13T17:03:41.293Z,99544.60
2023-04-13T17:08:44.534Z,99546.40
2023-04-13T17:13:47.635Z,99555.20
2023-04-13T17:18:50.780Z,99568.60
2023-04-13T17:23:53.960Z,99573.00
2023-04-13T17:28:57.309Z,99581.40
2023-04-13T17:34:00.788Z,99591.80
2023-04-13T17:39:06.755Z,99603.40
2023-04-13T17:44:09.957Z,99608.80
2023-04-13T17:49:13.398Z,99607.20
2023-04-13T17:54:16.479Z,99608.80
2023-04-13T17:59:19.587Z,99610.80
2023-04-13T18:04:22.913Z,99615.40
2023-04-13T18:09:28.312Z,99611.60
2023-04-13T18:14:31.484Z,99619.80
2023-04-13T18:19:34.987Z,99627.00
2023-04-13T18:24:39.046Z,99642.00
2023-04-13T18:29:42.223Z,99651.00
2023-04-13T18:34:45.350Z,99654.40
2023-04-13T18:39:48.540Z,99664.80
2023-04-13T18:44:51.670Z,99665.80
2023-04-13T18:49:55.364Z,99670.20
2023-04-13T18:54:59.299Z,99668.60
2023-04-13T19:00:02.426Z,99677.00
2023-04-13T19:05:06.291Z,99678.00
2023-04-13T19:10:11.268Z,99680.20
2023-04-13T19:15:14.373Z,99686.60
2023-04-13T19:20:18.284Z,99687.60
2023-04-13T19:25:21.943Z,99684.40
2023-04-13T19:30:25.247Z,99693.80
2023-04-13T19:35:29.364Z,99696.40
2023-04-13T19:40:32.464Z,99689.80
2023-04-13T19:45:36.266Z,99690.00
2023-04-13T19:50:39.292Z,99692.60
2023-04-13T19:55:42.528Z,99692.60
2023-04-13T20:00:47.441Z,99696.80
2023-04-13T20:05:50.760Z,99695.00
2023-04-13T20:10:54.071Z,99692.80
2023-04-13T20:15:57.131Z,99698.40
2023-04-13T20:21:00.800Z,99698.00
2023-04-13T20:26:04.716Z,99702.40
2023-04-13T20:31:08.615Z,99707.80
2023-04-13T20:36:12.395Z,99709.00
2023-04-13T20:41:15.385Z,99716.40
2023-04-13T20:46:18.943Z,99719.20
2023-04-13T20:51:23.632Z,99719.40
2023-04-13T20:56:26.685Z,99716.00
2023-04-13T21:01:30.663Z,99718.00
2023-04-13T21:06:37.680Z,99723.20
2023-04-13T21:11:42.772Z,99729.60
2023-04-13T21:16:45.970Z,99728.00
2023-04-13T21:21:49.250Z,99733.40
2023-04-13T21:26:52.411Z,99728.40
2023-04-13T21:31:55.607Z,99737.40
2023-04-13T21:37:01.844Z,99736.40
2023-04-13T21:42:05.540Z,99736.40
2023-04-13T21:47:08.615Z,99732.00
2023-04-13T21:52:11.668Z,99732.40
2023-04-13T21:57:14.868Z,99726.60
2023-04-13T22:02:17.959Z,99722.40
2023-04-13T22:07:31.483Z,99719.60
2023-04-13T22:12:42.427Z,99727.80
2023-04-13T22:17:45.708Z,99732.40
2023-04-13T22:22:48.945Z,99735.20
2023-04-13T22:27:53.370Z,99742.40
2023-04-13T22:32:57.358Z,99751.80
2023-04-13T22:38:00.405Z,99752.20
2023-04-13T22:43:03.412Z,99759.20
2023-04-13T22:48:06.908Z,99762.40
2023-04-13T22:53:10.075Z,99759.00
2023-04-13T22:58:13.235Z,99758.80
2023-04-13T23:03:16.745Z,99757.80
2023-04-13T23:08:21.029Z,99759.40
2023-04-13T23:13:24.101Z,99758.20
2023-04-13T23:18:27.820Z,99763.00
2023-04-13T23:23:30.845Z,99767.40
2023-04-13T23:28:33.922Z,99768.80
2023-04-13T23:33:37.468Z,99763.00
2023-04-13T23:38:40.549Z,99763.20
2023-04-13T23:43:43.668Z,99757.40
2023-04-13T23:48:46.767Z,99760.40
2023-04-13T23:53:49.873Z,99761.00
2023-04-13T23:58:53.075Z,99764.80
